Terminal Aerodrome Forecast
Issued by NWS

Home | Current Version | Previous Version | Text Only | Print | Product List | Glossary On
Versions: 1 2 3 4 5 6 7 8 9 10 11 12 13 14 15 16 17 18 19 20 21 22 23 24 25 26 27 28 29 30 31 32 33 34 35 36 37 38 39 40 41
000
FTUS43 KDLH 182200 AAC
TAFHYR
TAF AMD
KHYR 182202Z 1822/1918 04003KT P6SM VCSH FEW016 SCT025
      TEMPO 1823/1902 -TSRA BKN035CB
     FM190300 VRB02KT 4SM BR VCSH OVC015
     FM190600 00000KT 3/4SM BR OVC002
     FM191500 34003KT 2SM BR OVC007=

USA.gov is the U.S. government's official web portal to all federal, state and local government web resources and services.